createdAt,value
2022-09-21T00:00:07.465Z,6.40
2022-09-21T00:03:09.172Z,6.80
2022-09-21T00:06:04.635Z,5.90
2022-09-21T00:08:54.379Z,6.10
2022-09-21T00:11:44.049Z,6.90
2022-09-21T00:14:33.876Z,6.10
2022-09-21T00:17:23.698Z,5.90
2022-09-21T00:20:13.703Z,6.20
2022-09-21T00:23:03.745Z,5.90
2022-09-21T00:25:53.493Z,5.40
2022-09-21T00:28:44.066Z,6.10
2022-09-21T00:31:34.264Z,5.80
2022-09-21T00:34:26.924Z,5.60
2022-09-21T00:37:17.345Z,5.20
2022-09-21T00:40:10.021Z,5.40
2022-09-21T00:43:14.518Z,5.50
2022-09-21T00:46:06.509Z,5.30
2022-09-21T00:48:56.257Z,5.20
2022-09-21T00:51:46.295Z,5.10
2022-09-21T00:54:40.392Z,4.90
2022-09-21T00:57:31.051Z,4.70
2022-09-21T01:00:21.468Z,4.90
2022-09-21T01:03:11.847Z,4.60
2022-09-21T01:06:01.820Z,5.00
2022-09-21T01:08:52.889Z,5.50
2022-09-21T01:11:51.129Z,5.30
2022-09-21T01:14:53.336Z,4.70
2022-09-21T01:17:47.012Z,4.70
2022-09-21T01:21:21.062Z,4.40
2022-09-21T01:24:20.611Z,4.30
2022-09-21T01:27:59.737Z,4.70
2022-09-21T01:30:49.503Z,4.30
2022-09-21T01:33:43.394Z,4.50
2022-09-21T01:36:33.537Z,4.60
2022-09-21T01:39:23.217Z,4.30
2022-09-21T01:42:13.292Z,4.80
2022-09-21T01:45:06.545Z,4.70
2022-09-21T01:47:56.428Z,4.40
2022-09-21T01:50:48.523Z,4.70
2022-09-21T01:53:41.016Z,5.10
2022-09-21T01:56:35.468Z,5.00
2022-09-21T01:59:28.120Z,4.60
2022-09-21T02:02:19.398Z,4.80
2022-09-21T02:05:10.190Z,4.80
2022-09-21T02:07:59.909Z,5.00
2022-09-21T02:10:50.827Z,5.60
2022-09-21T02:13:42.941Z,5.60
2022-09-21T02:16:39.122Z,5.30
2022-09-21T02:19:35.294Z,5.90
2022-09-21T02:25:26.781Z,5.90
2022-09-21T02:28:24.607Z,6.50
2022-09-21T02:31:20.759Z,6.10
2022-09-21T02:37:09.799Z,6.30
2022-09-21T02:40:03.528Z,7.50
2022-09-21T02:42:55.995Z,7.40
2022-09-21T02:45:50.292Z,7.50
2022-09-21T02:48:43.244Z,7.80
2022-09-21T02:51:35.892Z,7.60
2022-09-21T02:54:27.625Z,8.20
2022-09-21T02:57:18.309Z,8.20
2022-09-21T03:00:12.323Z,8.00
2022-09-21T03:03:02.081Z,8.80
2022-09-21T03:05:53.409Z,8.40
2022-09-21T03:08:43.070Z,8.70
2022-09-21T03:11:35.517Z,9.50
2022-09-21T03:14:25.418Z,9.20
2022-09-21T03:17:15.098Z,9.80
2022-09-21T03:20:06.543Z,10.30
2022-09-21T03:22:56.213Z,9.80
2022-09-21T03:25:46.412Z,9.90
2022-09-21T03:28:36.119Z,9.70
2022-09-21T03:31:25.965Z,10.50
2022-09-21T03:34:16.000Z,10.70
2022-09-21T03:37:07.386Z,10.70
2022-09-21T03:39:57.973Z,10.60
2022-09-21T03:42:48.832Z,11.10
2022-09-21T03:45:40.363Z,10.90
2022-09-21T03:48:32.194Z,11.30
2022-09-21T03:51:21.877Z,11.10
2022-09-21T03:54:11.685Z,11.90
2022-09-21T03:57:01.696Z,13.10
2022-09-21T03:59:53.639Z,13.20
2022-09-21T04:02:43.394Z,13.40
2022-09-21T04:05:33.752Z,13.20
2022-09-21T04:08:24.116Z,13.20
2022-09-21T04:11:15.092Z,13.00
2022-09-21T04:14:05.271Z,12.40
2022-09-21T04:16:55.057Z,12.40
2022-09-21T04:19:45.032Z,12.60
2022-09-21T04:22:38.853Z,11.60
2022-09-21T04:25:33.136Z,11.50
2022-09-21T04:28:23.197Z,11.70
2022-09-21T04:31:12.892Z,11.50
2022-09-21T04:34:02.680Z,10.90
2022-09-21T04:36:53.781Z,10.90
2022-09-21T04:39:43.511Z,11.30
2022-09-21T04:42:33.186Z,10.80
2022-09-21T04:45:23.389Z,10.90
2022-09-21T04:48:13.121Z,11.30
2022-09-21T04:51:03.010Z,10.80
2022-09-21T04:53:52.713Z,10.50
2022-09-21T04:56:42.407Z,10.40
2022-09-21T04:59:32.140Z,10.10
2022-09-21T05:02:21.866Z,9.90
2022-09-21T05:05:12.845Z,9.30
2022-09-21T05:08:03.167Z,9.60
2022-09-21T05:10:53.650Z,9.90
2022-09-21T05:13:43.413Z,9.70
2022-09-21T05:16:33.292Z,9.30
2022-09-21T05:19:23.254Z,9.30
2022-09-21T05:22:13.272Z,8.90
2022-09-21T05:25:03.074Z,8.30
2022-09-21T05:27:54.188Z,8.20
2022-09-21T05:31:01.437Z,8.90
2022-09-21T05:33:58.328Z,8.10
2022-09-21T05:36:55.359Z,8.40
2022-09-21T05:39:46.923Z,8.10
2022-09-21T05:42:38.116Z,7.90
2022-09-21T05:45:29.818Z,7.90
2022-09-21T05:48:20.983Z,8.00
2022-09-21T05:51:17.525Z,7.70
2022-09-21T05:54:10.551Z,7.80
2022-09-21T05:57:07.969Z,7.30
2022-09-21T06:00:07.606Z,7.70
2022-09-21T06:03:29.121Z,7.00
2022-09-21T06:09:08.039Z,6.90
2022-09-21T06:11:57.797Z,7.00
2022-09-21T06:14:47.792Z,6.90
2022-09-21T06:17:38.202Z,7.30
2022-09-21T06:20:31.259Z,6.90
2022-09-21T06:23:36.993Z,7.00
2022-09-21T06:26:27.742Z,6.60
2022-09-21T06:29:23.042Z,6.20
2022-09-21T06:32:12.845Z,6.20
2022-09-21T06:35:02.836Z,6.00
2022-09-21T06:37:52.686Z,5.90
2022-09-21T06:40:42.828Z,6.20
2022-09-21T06:43:32.650Z,5.40
2022-09-21T06:46:23.424Z,5.40
2022-09-21T06:49:13.181Z,4.70
2022-09-21T06:52:03.968Z,4.40
2022-09-21T06:54:53.801Z,4.40
2022-09-21T06:57:44.505Z,3.40
2022-09-21T07:00:34.582Z,4.30
2022-09-21T07:03:25.207Z,3.50
2022-09-21T07:06:15.183Z,3.60
2022-09-21T07:12:15.718Z,3.40
2022-09-21T07:15:10.556Z,3.50
2022-09-21T07:18:07.700Z,2.90
2022-09-21T07:20:57.668Z,2.60
2022-09-21T07:23:48.285Z,2.60
2022-09-21T07:26:38.523Z,2.40
2022-09-21T07:29:28.306Z,2.60
2022-09-21T07:32:20.843Z,2.50
2022-09-21T07:35:11.582Z,2.60
2022-09-21T07:38:02.852Z,2.30
2022-09-21T07:40:52.754Z,2.40
2022-09-21T07:43:43.049Z,2.30
2022-09-21T07:46:32.841Z,2.00
2022-09-21T07:49:22.741Z,2.20
2022-09-21T07:52:12.654Z,1.90
2022-09-21T07:55:02.834Z,1.90
2022-09-21T07:58:11.058Z,2.10
2022-09-21T08:01:06.146Z,2.10
2022-09-21T08:03:57.016Z,2.50
2022-09-21T08:06:46.768Z,2.00
2022-09-21T08:09:36.501Z,2.10
2022-09-21T08:12:26.274Z,2.20
2022-09-21T08:15:44.030Z,2.00
2022-09-21T08:18:27.209Z,2.50
2022-09-21T08:21:16.928Z,2.20
2022-09-21T08:24:07.885Z,1.90
2022-09-21T08:26:57.746Z,2.00
2022-09-21T08:29:47.491Z,1.70
2022-09-21T08:32:50.333Z,2.20
2022-09-21T08:35:40.647Z,2.00
2022-09-21T08:38:34.983Z,2.10
2022-09-21T08:41:30.012Z,2.10
2022-09-21T08:44:23.020Z,2.00
2022-09-21T08:47:15.301Z,1.60
2022-09-21T08:50:11.747Z,2.10
2022-09-21T08:53:06.597Z,2.00
2022-09-21T08:55:57.800Z,2.10
2022-09-21T08:58:47.614Z,2.30
2022-09-21T09:01:49.509Z,1.70
2022-09-21T09:04:52.773Z,1.80
2022-09-21T09:08:12.484Z,1.80
2022-09-21T09:11:16.756Z,1.60
2022-09-21T09:14:21.761Z,1.90
2022-09-21T09:17:36.104Z,1.80
2022-09-21T09:20:29.525Z,1.80
2022-09-21T09:23:22.267Z,2.00
2022-09-21T09:26:17.605Z,1.50
2022-09-21T09:29:14.267Z,1.60
2022-09-21T09:32:04.430Z,1.60
2022-09-21T09:34:57.769Z,1.80
2022-09-21T09:37:47.441Z,1.60
2022-09-21T09:40:53.476Z,1.60
2022-09-21T09:43:51.654Z,1.50
2022-09-21T09:46:51.401Z,1.50
2022-09-21T09:49:57.206Z,1.60
2022-09-21T09:52:47.149Z,1.50
2022-09-21T09:55:38.959Z,1.60
2022-09-21T09:58:38.344Z,1.70
2022-09-21T10:01:42.507Z,1.50
2022-09-21T10:04:34.200Z,1.60
2022-09-21T10:07:35.406Z,1.40
2022-09-21T10:10:37.334Z,1.60
2022-09-21T10:13:31.258Z,1.40
2022-09-21T10:16:22.790Z,1.50
2022-09-21T10:19:17.205Z,1.40
2022-09-21T10:22:06.970Z,1.50
2022-09-21T10:24:59.067Z,1.60
2022-09-21T10:27:50.548Z,1.30
2022-09-21T10:30:41.331Z,1.60
2022-09-21T10:33:31.290Z,1.50
2022-09-21T10:36:32.086Z,1.30
2022-09-21T10:39:27.580Z,1.40
2022-09-21T10:42:18.461Z,1.50
2022-09-21T10:45:16.140Z,1.60
2022-09-21T10:48:13.405Z,1.60
2022-09-21T10:51:03.235Z,1.60
2022-09-21T10:53:54.476Z,1.70
2022-09-21T10:56:54.078Z,1.70
2022-09-21T10:59:44.529Z,1.50
2022-09-21T11:02:38.677Z,1.50
2022-09-21T11:05:31.909Z,1.80
2022-09-21T11:08:24.176Z,1.80
2022-09-21T11:11:31.973Z,1.60
2022-09-21T11:14:33.529Z,1.50
2022-09-21T11:17:31.447Z,1.50
2022-09-21T11:20:28.176Z,1.40
2022-09-21T11:23:32.417Z,1.40
2022-09-21T11:26:27.206Z,1.30
2022-09-21T11:29:22.693Z,1.40
2022-09-21T11:32:36.862Z,1.60
2022-09-21T11:35:45.608Z,1.40
2022-09-21T11:38:52.383Z,1.40
2022-09-21T11:41:56.162Z,1.30
2022-09-21T11:44:55.336Z,1.70
2022-09-21T11:48:00.176Z,1.60
2022-09-21T11:51:04.865Z,1.80
2022-09-21T11:54:21.103Z,2.00
2022-09-21T11:57:18.565Z,2.10
2022-09-21T12:00:16.576Z,3.50
2022-09-21T12:04:03.638Z,20.20
2022-09-21T12:07:05.424Z,32.50
2022-09-21T12:10:12.127Z,26.50
2022-09-21T12:13:08.456Z,22.50
2022-09-21T12:16:02.984Z,17.20
2022-09-21T12:18:58.010Z,13.40
2022-09-21T12:21:50.362Z,11.40
2022-09-21T12:24:46.624Z,9.20
2022-09-21T12:27:39.552Z,7.90
2022-09-21T12:30:31.247Z,7.70
2022-09-21T12:33:24.412Z,7.40
2022-09-21T12:36:18.146Z,6.70
2022-09-21T12:39:13.274Z,4.80
2022-09-21T12:42:07.845Z,4.00
2022-09-21T12:45:00.658Z,3.70
2022-09-21T12:47:57.498Z,4.10
2022-09-21T12:50:49.859Z,2.90
2022-09-21T12:53:48.493Z,3.00
2022-09-21T12:56:46.110Z,2.10
2022-09-21T12:59:46.374Z,2.40
2022-09-21T13:02:40.626Z,2.00
2022-09-21T13:05:37.584Z,1.60
2022-09-21T13:08:29.333Z,1.40
2022-09-21T13:11:21.033Z,1.50
2022-09-21T13:14:12.720Z,1.60
2022-09-21T13:17:04.506Z,1.60
2022-09-21T13:20:05.304Z,1.50
2022-09-21T13:23:00.637Z,1.20
2022-09-21T13:26:00.442Z,1.30
2022-09-21T13:29:29.883Z,1.20
2022-09-21T13:32:24.466Z,1.10
2022-09-21T13:36:05.249Z,1.50
2022-09-21T13:39:17.001Z,1.50
2022-09-21T13:42:46.622Z,1.80
2022-09-21T13:46:04.548Z,1.70
2022-09-21T13:48:54.680Z,1.20
2022-09-21T13:51:55.963Z,1.30
2022-09-21T13:54:49.965Z,1.70
2022-09-21T13:57:45.783Z,1.50
2022-09-21T14:00:38.309Z,1.40
2022-09-21T14:03:34.029Z,1.40
2022-09-21T14:06:26.746Z,1.40
2022-09-21T14:09:24.502Z,1.80
2022-09-21T14:12:20.936Z,1.40
2022-09-21T14:15:38.518Z,1.70
2022-09-21T14:18:46.485Z,1.70
2022-09-21T14:21:36.917Z,1.40
2022-09-21T14:24:37.685Z,1.40
2022-09-21T14:27:30.588Z,1.30
2022-09-21T14:30:21.881Z,1.60
2022-09-21T14:33:46.549Z,1.60
2022-09-21T14:36:42.330Z,1.30
2022-09-21T14:39:37.246Z,1.30
2022-09-21T14:42:31.317Z,1.50
2022-09-21T14:45:24.429Z,1.70
2022-09-21T14:48:17.399Z,1.60
2022-09-21T14:51:15.596Z,1.70
2022-09-21T14:54:17.467Z,2.10
2022-09-21T14:57:34.230Z,1.70
2022-09-21T15:00:35.730Z,1.60
2022-09-21T15:03:49.185Z,1.60
2022-09-21T15:07:01.886Z,1.70
2022-09-21T15:10:38.479Z,1.90
2022-09-21T15:13:51.599Z,2.00
2022-09-21T15:16:43.531Z,2.00
2022-09-21T15:19:37.215Z,2.20
2022-09-21T15:22:27.492Z,2.00
2022-09-21T15:25:18.155Z,2.30
2022-09-21T15:28:11.464Z,2.30
2022-09-21T15:31:01.381Z,2.80
2022-09-21T15:33:52.582Z,2.70
2022-09-21T15:36:43.261Z,2.60
2022-09-21T15:39:33.257Z,2.90
2022-09-21T15:42:23.516Z,3.50
2022-09-21T15:45:17.485Z,3.60
2022-09-21T15:48:12.960Z,3.70
2022-09-21T15:51:07.336Z,3.80
2022-09-21T15:54:04.386Z,4.10
2022-09-21T15:56:55.691Z,4.30
2022-09-21T15:59:46.855Z,3.90
2022-09-21T16:02:38.822Z,4.00
2022-09-21T16:05:29.034Z,4.40
2022-09-21T16:08:32.975Z,4.40
2022-09-21T16:11:37.061Z,4.30
2022-09-21T16:14:53.889Z,4.40
2022-09-21T16:17:57.866Z,4.80
2022-09-21T16:20:48.426Z,4.00
2022-09-21T16:23:38.953Z,4.10
2022-09-21T16:26:34.073Z,4.00
2022-09-21T16:29:25.892Z,4.40
2022-09-21T16:32:31.416Z,4.20
2022-09-21T16:35:27.248Z,4.20
2022-09-21T16:38:19.842Z,4.20
2022-09-21T16:41:09.873Z,4.10
2022-09-21T16:44:00.448Z,4.20
2022-09-21T16:46:56.248Z,3.80
2022-09-21T16:49:46.469Z,4.00
2022-09-21T16:52:36.433Z,3.70
2022-09-21T16:55:29.263Z,4.30
2022-09-21T16:58:20.421Z,3.70
2022-09-21T17:01:12.343Z,4.10
2022-09-21T17:04:03.016Z,4.00
2022-09-21T17:06:53.492Z,3.90
2022-09-21T17:09:46.942Z,3.70
2022-09-21T17:12:37.674Z,4.20
2022-09-21T17:15:31.847Z,3.70
2022-09-21T17:18:21.927Z,3.70
2022-09-21T17:21:12.440Z,4.20
2022-09-21T17:24:03.195Z,4.40
2022-09-21T17:26:55.071Z,4.30
2022-09-21T17:29:47.711Z,4.10
2022-09-21T17:32:38.908Z,4.00
2022-09-21T17:35:33.846Z,4.60
2022-09-21T17:38:23.933Z,4.30
2022-09-21T17:41:20.761Z,4.30
2022-09-21T17:44:18.893Z,4.50
2022-09-21T17:47:16.629Z,3.80
2022-09-21T17:50:20.257Z,4.40
2022-09-21T17:53:32.857Z,4.30
2022-09-21T17:56:33.774Z,4.00
2022-09-21T17:59:32.069Z,4.50
2022-09-21T18:02:27.637Z,4.40
2022-09-21T18:05:27.219Z,4.80
2022-09-21T18:08:18.442Z,4.40
2022-09-21T18:11:33.676Z,4.50
2022-09-21T18:14:34.620Z,4.70
2022-09-21T18:17:45.112Z,4.60
2022-09-21T18:20:47.225Z,4.90
2022-09-21T18:23:45.947Z,4.10
2022-09-21T18:26:38.665Z,4.50
2022-09-21T18:29:40.890Z,4.70
2022-09-21T18:32:49.039Z,4.50
2022-09-21T18:35:48.684Z,4.70
2022-09-21T18:38:41.464Z,4.70
2022-09-21T18:41:36.499Z,4.90
2022-09-21T18:44:31.172Z,4.90
2022-09-21T18:47:25.127Z,4.40
2022-09-21T18:50:28.288Z,5.00
2022-09-21T18:53:24.088Z,4.70
2022-09-21T18:56:17.266Z,4.70
2022-09-21T18:59:09.892Z,4.90
2022-09-21T19:02:01.570Z,5.40
2022-09-21T19:04:58.627Z,5.00
2022-09-21T19:07:55.341Z,5.70
2022-09-21T19:10:49.988Z,5.30
2022-09-21T19:13:46.689Z,5.20
2022-09-21T19:16:42.778Z,5.40
2022-09-21T19:19:38.741Z,6.10
2022-09-21T19:22:34.759Z,5.70
2022-09-21T19:25:32.479Z,5.60
2022-09-21T19:29:07.732Z,5.60
2022-09-21T19:31:58.400Z,6.20
2022-09-21T19:34:49.217Z,6.40
2022-09-21T19:37:40.027Z,6.00
2022-09-21T19:40:33.108Z,6.10
2022-09-21T19:43:29.683Z,6.50
2022-09-21T19:46:24.137Z,6.10
2022-09-21T19:49:17.831Z,5.80
2022-09-21T19:52:10.497Z,5.40
2022-09-21T19:55:21.078Z,5.40
2022-09-21T19:58:30.313Z,5.80
2022-09-21T20:01:20.693Z,5.80
2022-09-21T20:04:14.015Z,5.40
2022-09-21T20:07:18.361Z,5.30
2022-09-21T20:10:43.099Z,5.80
2022-09-21T20:13:52.501Z,5.10
2022-09-21T20:16:48.403Z,5.70
2022-09-21T20:19:43.966Z,5.30
2022-09-21T20:22:35.933Z,5.10
2022-09-21T20:25:27.686Z,5.30
2022-09-21T20:28:20.047Z,5.70
2022-09-21T20:31:11.040Z,5.50
2022-09-21T20:34:01.636Z,5.30
2022-09-21T20:36:51.564Z,5.70
2022-09-21T20:39:41.802Z,5.30
2022-09-21T20:42:33.759Z,5.60
2022-09-21T20:45:23.748Z,5.50
2022-09-21T20:48:13.918Z,6.20
2022-09-21T20:51:05.494Z,5.70
2022-09-21T20:53:55.432Z,6.20
2022-09-21T20:56:45.791Z,6.60
2022-09-21T20:59:35.732Z,5.80
2022-09-21T21:02:25.685Z,6.40
2022-09-21T21:05:17.907Z,6.20
2022-09-21T21:08:08.638Z,6.10
2022-09-21T21:10:59.627Z,6.60
2022-09-21T21:13:49.911Z,6.60
2022-09-21T21:16:39.880Z,6.30
2022-09-21T21:19:30.655Z,5.70
2022-09-21T21:22:20.560Z,6.40
2022-09-21T21:25:11.077Z,6.60
2022-09-21T21:28:01.433Z,7.00
2022-09-21T21:30:54.743Z,6.60
2022-09-21T21:33:44.608Z,6.30
2022-09-21T21:36:34.575Z,6.20
2022-09-21T21:39:24.565Z,6.70
2022-09-21T21:42:14.507Z,6.40
2022-09-21T21:45:06.914Z,6.80
2022-09-21T21:47:57.995Z,6.80
2022-09-21T21:50:47.936Z,6.90
2022-09-21T21:53:39.202Z,6.90
2022-09-21T21:56:29.115Z,7.10
2022-09-21T21:59:19.050Z,6.70
2022-09-21T22:02:09.654Z,7.10
2022-09-21T22:04:59.605Z,6.40
2022-09-21T22:07:49.811Z,6.80
2022-09-21T22:10:39.713Z,6.20
2022-09-21T22:13:34.830Z,6.50
2022-09-21T22:16:27.128Z,6.50
2022-09-21T22:19:17.048Z,7.00
2022-09-21T22:22:07.227Z,7.10
2022-09-21T22:24:57.134Z,6.80
2022-09-21T22:27:47.256Z,6.50
2022-09-21T22:30:38.505Z,6.70
2022-09-21T22:33:33.316Z,7.00
2022-09-21T22:36:25.896Z,6.90
2022-09-21T22:39:15.816Z,6.40
2022-09-21T22:42:06.262Z,6.70
2022-09-21T22:44:56.455Z,6.70
2022-09-21T22:47:47.631Z,6.80
2022-09-21T22:50:37.888Z,6.50
2022-09-21T22:53:27.812Z,6.50
2022-09-21T22:56:19.658Z,6.00
2022-09-21T22:59:09.667Z,6.40
2022-09-21T23:01:59.569Z,6.30
2022-09-21T23:04:49.565Z,7.00
2022-09-21T23:07:39.806Z,5.80
2022-09-21T23:10:30.007Z,6.50
2022-09-21T23:13:19.928Z,6.20
2022-09-21T23:16:11.406Z,6.30
2022-09-21T23:19:01.791Z,6.10
2022-09-21T23:21:52.384Z,5.90
2022-09-21T23:24:42.774Z,6.10
2022-09-21T23:27:32.708Z,6.00
2022-09-21T23:30:22.643Z,5.60
2022-09-21T23:33:12.816Z,6.20
2022-09-21T23:36:03.595Z,5.50
2022-09-21T23:38:53.685Z,5.50
2022-09-21T23:41:43.957Z,5.50
2022-09-21T23:44:33.876Z,5.70
2022-09-21T23:47:24.243Z,5.30
2022-09-21T23:50:14.549Z,5.50
2022-09-21T23:53:04.875Z,5.50
2022-09-21T23:55:55.140Z,5.20
2022-09-21T23:58:45.423Z,5.60
